Time;durP1;ratioP1;P1;durP2;ratioP2;P2;SDS_P1;SDS_P2;PMS_P1;PMS_P2;Temp;Humidity;BMP_temperature;BMP_pressure;BME280_temperature;BME280_humidity;BME280_pressure;Samples;Min_cycle;Max_cycle;Signal;HPM_P1;HPM_P2
2021/07/13 00:00:29;;;;;;;9.25;6.95;;;;;;;17.15;72.04;99520.42;254657;1104;117077;-66
2021/07/13 00:05:50;;;;;;;14.38;6.25;;;;;;;17.30;72.54;99507.91;254389;1104;115242;-66
2021/07/13 00:10:55;;;;;;;8.38;7.40;;;;;;;17.24;72.08;99509.04;255585;1104;115649;-67
2021/07/13 00:16:00;;;;;;;7.05;5.75;;;;;;;17.20;72.69;99511.50;254709;1104;115104;-67
2021/07/13 00:21:07;;;;;;;8.78;7.05;;;;;;;17.22;72.48;99519.30;255776;1104;114966;-67
2021/07/13 00:26:15;;;;;;;8.83;6.35;;;;;;;17.19;72.32;99517.97;255433;1104;115570;-67
2021/07/13 00:31:21;;;;;;;8.33;6.73;;;;;;;17.24;72.60;99525.20;255691;1104;116107;-68
2021/07/13 00:36:26;;;;;;;6.40;5.83;;;;;;;17.30;72.80;99519.49;256074;1104;115515;-67
2021/07/13 00:41:35;;;;;;;7.53;6.48;;;;;;;17.26;73.14;99531.11;256801;1105;115503;-68
2021/07/13 00:46:46;;;;;;;9.25;6.50;;;;;;;17.27;72.85;99527.34;256508;1104;114993;-67
2021/07/13 00:51:51;;;;;;;11.33;7.60;;;;;;;17.37;72.78;99516.47;256693;1104;114624;-66
2021/07/13 00:56:58;;;;;;;6.67;6.07;;;;;;;17.42;72.44;99522.62;257144;1104;115689;-66
2021/07/13 01:02:04;;;;;;;11.23;6.37;;;;;;;17.34;72.25;99557.45;256889;1104;115365;-66
2021/07/13 01:07:44;;;;;;;6.65;6.15;;;;;;;17.32;72.49;99562.31;256800;1104;116444;-66
2021/07/13 01:13:08;;;;;;;7.90;6.60;;;;;;;17.28;72.71;99562.08;255941;1104;115615;-66
2021/07/13 01:18:22;;;;;;;5.95;5.35;;;;;;;17.25;72.23;99575.30;255500;1104;115543;-66
2021/07/13 01:23:29;;;;;;;7.75;6.95;;;;;;;17.21;72.39;99569.67;254699;1104;115984;-67
2021/07/13 01:28:41;;;;;;;8.65;6.50;;;;;;;17.21;72.57;99558.89;255803;1104;116219;-67
2021/07/13 01:33:53;;;;;;;7.13;6.43;;;;;;;17.11;72.66;99538.26;254711;1099;115900;-67
2021/07/13 01:39:00;;;;;;;9.13;6.15;;;;;;;17.08;73.01;99554.98;255829;1104;115905;-67
2021/07/13 01:44:06;;;;;;;7.13;6.15;;;;;;;17.12;73.21;99557.91;254861;1104;115458;-67
2021/07/13 01:49:11;;;;;;;;;;;;;;;17.14;73.25;99543.05;255554;1104;115754;-67
2021/07/13 01:54:19;;;;;;;6.43;5.83;;;;;;;17.12;72.81;99544.45;256097;1104;103068;-67
2021/07/13 01:59:26;;;;;;;11.73;6.15;;;;;;;16.89;72.75;99547.84;254832;1104;115353;-67
2021/07/13 02:04:33;;;;;;;;;;;;;;;16.85;73.27;99552.98;255009;1104;116728;-67
2021/07/13 02:09:39;;;;;;;7.03;6.33;;;;;;;16.77;73.40;99551.71;255618;1104;102945;-66
2021/07/13 02:14:44;;;;;;;12.30;7.43;;;;;;;16.74;73.00;99549.58;255679;1104;116134;-67
2021/07/13 02:19:49;;;;;;;7.35;6.60;;;;;;;16.71;73.36;99546.63;254748;1104;116027;-67
2021/07/13 02:24:54;;;;;;;8.77;6.53;;;;;;;16.67;73.10;99546.38;255707;1099;117155;-67
2021/07/13 02:30:01;;;;;;;17.83;6.85;;;;;;;16.57;73.05;99553.67;255062;1104;117439;-67
2021/07/13 02:35:06;;;;;;;6.80;6.10;;;;;;;16.43;72.94;99550.81;255294;1104;116627;-67
2021/07/13 02:40:12;;;;;;;7.05;5.85;;;;;;;16.43;73.21;99537.36;255929;1104;116667;-66
2021/07/13 02:45:17;;;;;;;7.15;6.45;;;;;;;16.42;73.12;99531.17;255519;1104;116166;-67
2021/07/13 02:50:22;;;;;;;9.98;6.78;;;;;;;16.35;72.89;99537.93;256029;1104;117559;-66
2021/07/13 02:55:30;;;;;;;8.53;6.15;;;;;;;16.35;73.49;99533.36;257147;1104;116828;-67
2021/07/13 03:00:36;;;;;;;6.70;6.05;;;;;;;16.39;73.48;99547.06;257002;1104;116968;-67
2021/07/13 03:05:41;;;;;;;;;;;;;;;16.40;73.35;99551.36;256832;1104;119222;-67
2021/07/13 03:10:46;;;;;;;7.33;6.43;;;;;;;16.41;73.50;99551.09;257838;1105;102679;-66
2021/07/13 03:15:52;;;;;;;7.00;6.37;;;;;;;16.46;73.83;99564.52;257328;1104;117383;-67
2021/07/13 03:21:00;;;;;;;6.70;6.08;;;;;;;16.35;73.08;99573.70;256033;1104;116551;-66
2021/07/13 03:26:07;;;;;;;6.93;5.90;;;;;;;16.15;73.15;99571.12;256114;1104;116099;-67
2021/07/13 03:31:12;;;;;;;7.83;6.43;;;;;;;16.05;73.75;99561.20;254633;1104;117239;-67
2021/07/13 03:36:19;;;;;;;7.58;6.85;;;;;;;16.19;74.26;99569.48;255482;1104;116104;-66
2021/07/13 03:41:25;;;;;;;8.58;7.05;;;;;;;16.30;73.95;99571.03;255900;1100;115910;-67
2021/07/13 03:46:38;;;;;;;8.28;7.45;;;;;;;16.35;74.27;99560.26;255285;1104;117033;-66
2021/07/13 03:51:47;;;;;;;9.48;7.83;;;;;;;16.57;74.52;99553.67;255301;1104;116118;-67
2021/07/13 03:56:53;;;;;;;13.13;8.88;;;;;;;16.83;74.71;99547.06;255162;1100;115534;-66
2021/07/13 04:01:58;;;;;;;10.35;6.95;;;;;;;17.03;74.89;99543.44;254904;1104;115984;-66
2021/07/13 04:07:05;;;;;;;9.48;8.00;;;;;;;17.28;74.79;99550.49;254298;1104;115290;-67
2021/07/13 04:12:11;;;;;;;7.05;6.35;;;;;;;17.37;74.38;99546.91;255203;1104;115254;-66
2021/07/13 04:17:16;;;;;;;8.13;6.78;;;;;;;17.43;74.65;99537.67;254911;1100;115894;-66
2021/07/13 04:22:22;;;;;;;7.73;6.97;;;;;;;17.58;74.53;99525.95;255202;1104;115206;-66
2021/07/13 04:27:27;;;;;;;9.75;5.60;;;;;;;17.52;74.42;99519.00;255864;1104;116208;-66
2021/07/13 04:32:33;;;;;;;8.40;6.88;;;;;;;17.61;74.98;99524.58;255127;1104;116076;-66
2021/07/13 04:37:39;;;;;;;11.63;8.00;;;;;;;17.83;74.99;99525.69;256453;1104;116671;-65
2021/07/13 04:42:48;;;;;;;10.30;7.73;;;;;;;18.24;75.28;99519.00;254680;1104;115850;-65
2021/07/13 04:47:52;;;;;;;9.05;7.30;;;;;;;18.43;75.14;99525.20;254480;1104;120729;-67
2021/07/13 04:52:56;;;;;;;8.78;7.98;;;;;;;18.54;74.90;99520.47;255249;1104;115834;-67
2021/07/13 04:58:00;;;;;;;8.75;7.83;;;;;;;19.87;73.95;99519.87;255651;1104;116212;-68
2021/07/13 05:03:05;;;;;;;15.50;8.25;;;;;;;20.46;72.69;99513.49;256770;1104;114753;-67
2021/07/13 05:08:13;;;;;;;12.87;7.53;;;;;;;21.41;71.57;99500.59;256940;1104;115350;-68
2021/07/13 05:13:18;;;;;;;7.77;6.20;;;;;;;24.59;67.71;99498.56;256640;1104;116050;-69
2021/07/13 05:18:23;;;;;;;;;;;;;;;28.51;63.29;99495.19;255073;1104;117383;-69
2021/07/13 05:23:31;;;;;;;8.13;6.13;;;;;;;31.45;58.67;99498.91;255431;1104;103198;-69
2021/07/13 05:28:36;;;;;;;11.03;4.77;;;;;;;33.93;53.99;99503.89;255125;1099;118234;-69
2021/07/13 05:33:41;;;;;;;4.63;3.90;;;;;;;36.00;50.54;99501.59;253697;1104;115708;-70
2021/07/13 05:38:47;;;;;;;3.00;2.80;;;;;;;37.68;46.71;99503.75;254299;1104;115752;-70
2021/07/13 05:43:53;;;;;;;5.40;2.17;;;;;;;39.13;42.97;99512.47;254167;1104;115822;-69
2021/07/13 05:48:57;;;;;;;2.83;2.63;;;;;;;40.23;40.89;99507.69;254334;1100;119095;-70
2021/07/13 05:54:01;;;;;;;2.48;2.33;;;;;;;41.23;38.22;99518.77;255615;1104;116561;-71
2021/07/13 05:59:06;;;;;;;1.93;1.80;;;;;;;42.09;36.17;99522.31;254425;1104;115953;-70
2021/07/13 06:04:13;;;;;;;2.25;2.15;;;;;;;42.18;33.41;99508.38;254270;1104;115090;-71
2021/07/13 06:09:17;;;;;;;2.20;2.10;;;;;;;41.59;33.29;99509.99;254113;1104;115494;-70
2021/07/13 06:14:21;;;;;;;3.20;1.87;;;;;;;41.72;32.41;99507.95;254279;1104;116170;-71
2021/07/13 06:19:39;;;;;;;1.80;1.70;;;;;;;42.63;31.62;99502.31;255610;1104;116437;-69
2021/07/13 06:24:45;;;;;;;1.78;1.68;;;;;;;43.18;30.49;99494.94;254865;1099;116057;-67
2021/07/13 06:29:50;;;;;;;2.20;2.10;;;;;;;43.62;29.79;99487.14;256279;1104;114883;-67
2021/07/13 06:34:56;;;;;;;2.08;1.93;;;;;;;43.90;28.48;99481.53;256262;1104;115441;-67
2021/07/13 06:40:03;;;;;;;2.00;1.90;;;;;;;44.07;28.32;99490.44;256908;1104;115659;-68
2021/07/13 06:45:08;;;;;;;1.80;1.70;;;;;;;44.01;27.69;99493.12;254850;1104;115688;-68
2021/07/13 06:50:14;;;;;;;2.24;2.08;;;;;;;43.59;27.01;99488.05;256569;1104;115120;-67
2021/07/13 06:55:20;;;;;;;1.97;1.87;;;;;;;42.92;27.58;99480.36;256929;1104;116726;-67
2021/07/13 07:00:24;;;;;;;1.87;1.77;;;;;;;41.74;27.28;99476.72;257033;1104;115234;-68
2021/07/13 07:05:29;;;;;;;1.93;1.83;;;;;;;40.44;28.31;99466.42;257148;1104;115224;-68
2021/07/13 07:10:35;;;;;;;3.33;2.35;;;;;;;39.78;29.85;99463.02;256929;1104;114691;-67
2021/07/13 07:15:41;;;;;;;2.43;2.23;;;;;;;39.80;29.46;99465.38;257174;1104;115177;-67
2021/07/13 07:20:45;;;;;;;1.90;1.80;;;;;;;40.16;28.77;99463.20;257104;1104;115019;-67
2021/07/13 07:25:51;;;;;;;2.73;2.03;;;;;;;39.97;29.34;99445.41;257132;1104;115753;-68
2021/07/13 07:30:56;;;;;;;7.88;2.25;;;;;;;39.88;30.54;99447.22;254433;1100;115295;-69
2021/07/13 07:36:02;;;;;;;2.90;2.50;;;;;;;39.48;30.18;99447.47;256278;1104;114945;-68
2021/07/13 07:41:07;;;;;;;2.83;2.63;;;;;;;39.10;30.49;99449.22;255689;1104;115690;-68
2021/07/13 07:46:12;;;;;;;4.13;2.58;;;;;;;38.22;30.44;99447.91;257112;1104;116633;-68
2021/07/13 07:51:18;;;;;;;2.83;2.70;;;;;;;37.40;30.92;99448.59;255102;1104;114740;-69
2021/07/13 07:56:24;;;;;;;2.63;2.50;;;;;;;37.12;32.16;99449.03;253682;1105;115083;-69
2021/07/13 08:01:30;;;;;;;2.17;2.07;;;;;;;36.84;32.24;99453.81;254973;1104;114642;-68
2021/07/13 08:06:36;;;;;;;2.83;2.70;;;;;;;36.27;32.86;99445.43;254504;1104;116211;-69
2021/07/13 08:11:42;;;;;;;3.30;3.00;;;;;;;35.85;34.13;99433.58;254607;1100;115654;-69
2021/07/13 08:16:49;;;;;;;3.83;3.25;;;;;;;35.64;34.62;99436.55;255422;1104;115444;-69
2021/07/13 08:21:56;;;;;;;5.25;3.68;;;;;;;35.26;34.60;99435.66;254994;1104;114910;-69
2021/07/13 08:27:03;;;;;;;3.50;3.30;;;;;;;34.55;35.86;99425.81;254889;1104;114495;-69
2021/07/13 08:32:09;;;;;;;4.18;3.78;;;;;;;33.83;35.96;99427.27;254577;1104;115127;-68
2021/07/13 08:37:17;;;;;;;6.78;4.53;;;;;;;33.98;36.57;99428.00;254748;1099;115219;-68
2021/07/13 08:42:24;;;;;;;7.08;4.43;;;;;;;34.24;36.93;99421.22;255147;1104;118215;-68
2021/07/13 08:47:29;;;;;;;4.05;3.73;;;;;;;34.36;36.86;99418.02;256234;1104;114761;-68
2021/07/13 08:52:35;;;;;;;6.75;4.33;;;;;;;34.19;37.57;99419.66;254592;1104;115484;-68
2021/07/13 08:57:43;;;;;;;5.10;4.70;;;;;;;33.91;38.11;99411.45;254480;1104;115362;-68
2021/07/13 09:03:11;;;;;;;5.48;3.90;;;;;;;33.90;38.69;99415.41;256450;1104;116000;-67
2021/07/13 09:08:21;;;;;;;4.75;4.45;;;;;;;33.91;37.81;99411.45;255175;1104;115395;-67
2021/07/13 09:13:27;;;;;;;7.43;5.03;;;;;;;33.99;37.90;99411.02;257276;1104;114984;-69
2021/07/13 09:18:38;;;;;;;4.55;4.10;;;;;;;33.81;37.95;99415.02;256839;1104;115967;-69
2021/07/13 09:24:21;;;;;;;7.80;5.68;;;;;;;33.56;38.73;99424.13;255631;1104;116649;-67
2021/07/13 09:29:35;;;;;;;5.15;4.85;;;;;;;33.36;39.82;99425.70;256764;1104;117887;-69
2021/07/13 09:34:56;;;;;;;6.13;5.48;;;;;;;32.81;39.47;99412.23;254544;1104;115593;-67
2021/07/13 09:40:15;;;;;;;10.90;5.47;;;;;;;32.38;40.14;99417.63;255672;1104;116395;-67
2021/07/13 09:45:33;;;;;;;6.75;6.13;;;;;;;32.58;40.71;99409.00;255404;1104;116182;-68
2021/07/13 09:50:51;;;;;;;6.55;5.83;;;;;;;32.51;40.96;99408.98;255580;1104;116537;-67
2021/07/13 09:55:56;;;;;;;10.33;6.10;;;;;;;32.09;41.18;99404.87;254366;1104;116620;-68
2021/07/13 10:01:02;;;;;;;8.00;5.88;;;;;;;31.95;41.87;99399.27;255952;1104;117344;-68
2021/07/13 10:06:09;;;;;;;5.33;4.93;;;;;;;31.92;41.53;99397.28;255463;1100;116216;-67
2021/07/13 10:11:16;;;;;;;6.20;5.63;;;;;;;32.40;42.43;99398.72;254373;1104;116883;-71
2021/07/13 10:16:21;;;;;;;5.30;4.90;;;;;;;32.61;41.96;99405.47;254214;1104;117161;-70
2021/07/13 10:21:26;;;;;;;5.70;5.30;;;;;;;32.54;41.56;99402.68;254436;1104;115117;-69
2021/07/13 10:26:46;;;;;;;5.70;5.20;;;;;;;32.65;42.26;99409.03;254651;1104;115653;-70
2021/07/13 10:31:52;;;;;;;7.48;4.78;;;;;;;32.71;42.20;99396.43;254470;1104;115282;-71
2021/07/13 10:37:34;;;;;;;5.85;5.35;;;;;;;32.51;41.74;99387.70;254600;1104;115707;-69
2021/07/13 10:42:40;;;;;;;7.30;6.83;;;;;;;32.04;41.41;99394.20;255526;1104;115988;-69
2021/07/13 10:48:08;;;;;;;7.08;6.38;;;;;;;32.05;41.21;99382.00;253866;1104;114829;-69
2021/07/13 10:53:42;;;;;;;8.15;7.55;;;;;;;32.30;41.02;99388.42;255752;1104;115561;-69
2021/07/13 10:58:54;;;;;;;6.68;6.18;;;;;;;32.63;41.75;99381.82;255579;1104;116764;-69
2021/07/13 11:04:04;;;;;;;6.85;6.35;;;;;;;32.65;41.81;99378.67;254942;1104;114840;-69
2021/07/13 11:09:29;;;;;;;11.25;6.83;;;;;;;32.12;41.15;99370.98;255315;1104;115834;-68
2021/07/13 11:14:46;;;;;;;7.45;6.75;;;;;;;31.89;41.26;99368.52;256878;1105;115760;-68
2021/07/13 11:19:51;;;;;;;8.43;7.05;;;;;;;31.44;41.51;99365.11;254412;1100;115003;-69
2021/07/13 11:24:56;;;;;;;7.43;6.83;;;;;;;31.63;42.52;99354.97;254076;1104;115252;-69
2021/07/13 11:30:01;;;;;;;9.00;7.65;;;;;;;31.92;41.48;99350.42;254309;1104;118125;-69
2021/07/13 11:35:14;;;;;;;8.17;7.43;;;;;;;32.42;41.99;99352.19;254202;1104;115481;-69
2021/07/13 11:40:19;;;;;;;6.85;6.28;;;;;;;32.79;41.41;99349.13;255503;1104;137276;-70
2021/07/13 11:45:23;;;;;;;8.60;7.75;;;;;;;33.16;41.09;99344.41;254926;1104;115394;-70
2021/07/13 11:50:28;;;;;;;8.03;7.08;;;;;;;33.49;40.96;99338.47;254712;1104;115162;-69
2021/07/13 11:55:32;;;;;;;7.88;7.18;;;;;;;33.60;40.38;99330.16;254608;1104;116338;-69
2021/07/13 12:00:36;;;;;;;7.45;6.85;;;;;;;33.72;40.35;99322.20;254807;1104;115013;-70
2021/07/13 12:05:40;;;;;;;;;;;;;;;33.82;39.60;99322.61;255280;1104;114908;-70
2021/07/13 12:11:08;;;;;;;6.83;6.43;;;;;;;33.88;39.71;99307.18;254958;1104;102961;-69
2021/07/13 12:16:16;;;;;;;8.55;6.65;;;;;;;34.02;39.65;99312.63;254919;1104;116761;-69
2021/07/13 12:21:22;;;;;;;8.03;6.98;;;;;;;33.90;39.31;99307.57;254360;1100;115826;-71
2021/07/13 12:26:33;;;;;;;6.88;6.38;;;;;;;33.55;39.13;99300.95;254796;1104;115769;-71
2021/07/13 12:31:44;;;;;;;7.27;5.80;;;;;;;33.42;39.15;99299.80;254810;1100;115761;-71
2021/07/13 12:36:51;;;;;;;7.65;6.98;;;;;;;33.44;38.91;99289.92;254320;1104;115771;-70
2021/07/13 12:42:08;;;;;;;7.23;6.73;;;;;;;33.42;39.97;99291.50;254841;1104;115676;-73
2021/07/13 12:47:17;;;;;;;7.80;7.10;;;;;;;32.85;39.74;99290.77;254437;1104;117207;-72
2021/07/13 12:52:34;;;;;;;7.67;6.40;;;;;;;32.88;40.42;99288.02;254461;1099;115297;-72
2021/07/13 12:57:46;;;;;;;7.55;6.93;;;;;;;32.61;39.80;99298.63;255047;1104;115448;-69
2021/07/13 13:03:09;;;;;;;7.58;6.88;;;;;;;32.31;40.56;99290.71;255681;1104;115369;-71
2021/07/13 13:08:23;;;;;;;8.45;7.48;;;;;;;32.20;40.48;99283.55;254628;1099;115495;-72
2021/07/13 13:13:31;;;;;;;8.68;7.88;;;;;;;32.30;40.88;99266.28;254609;1104;115280;-72
2021/07/13 13:18:37;;;;;;;8.03;6.93;;;;;;;32.33;40.82;99263.53;254401;1104;115432;-71
2021/07/13 13:23:42;;;;;;;7.33;6.73;;;;;;;32.22;40.80;99254.44;256923;1104;115161;-71
2021/07/13 13:28:46;;;;;;;8.33;7.53;;;;;;;32.25;41.17;99253.66;256745;1104;114786;-71
2021/07/13 13:33:54;;;;;;;8.28;7.58;;;;;;;32.09;41.05;99251.25;257197;1104;114482;-71
2021/07/13 13:39:33;;;;;;;10.05;7.53;;;;;;;31.60;41.53;99257.34;256636;1104;115184;-71
2021/07/13 13:44:29;;;;;;;9.03;7.50;;;;;;;31.51;41.23;99256.90;256778;1100;115646;-70
2021/07/13 13:49:33;;;;;;;7.58;7.08;;;;;;;31.72;40.76;99265.31;255791;1104;115416;-70
2021/07/13 13:54:38;;;;;;;7.50;6.87;;;;;;;31.88;41.97;99255.90;254865;1099;115601;-71
2021/07/13 13:59:44;;;;;;;9.88;7.55;;;;;;;32.05;42.42;99264.23;255363;1104;116013;-71
2021/07/13 14:04:48;;;;;;;8.90;8.00;;;;;;;32.27;41.32;99256.81;256132;1104;116945;-71
2021/07/13 14:09:53;;;;;;;7.63;7.03;;;;;;;32.37;40.48;99260.78;253932;1104;117303;-70
2021/07/13 14:15:17;;;;;;;9.00;6.60;;;;;;;32.42;40.90;99260.36;254866;1100;116854;-68
2021/07/13 14:20:22;;;;;;;11.08;7.25;;;;;;;32.47;40.88;99255.25;255197;1100;118485;-70
2021/07/13 14:25:27;;;;;;;;;;;;;;;32.55;40.46;99246.98;254056;1104;119717;-71
2021/07/13 14:30:33;;;;;;;8.20;7.50;;;;;;;32.56;40.97;99237.52;255038;1104;102991;-72
2021/07/13 14:35:39;;;;;;;7.73;7.13;;;;;;;32.16;40.77;99233.91;255280;1104;115729;-72
2021/07/13 14:40:45;;;;;;;8.60;7.83;;;;;;;31.88;41.01;99239.36;254186;1104;116941;-73
2021/07/13 14:45:51;;;;;;;8.30;7.60;;;;;;;31.84;41.46;99222.02;254744;1104;118092;-73
2021/07/13 16:05:43;;;;;;;9.97;9.10;;;;;;;29.70;44.16;99214.09;261189;1090;103390;-71
2021/07/13 16:10:48;;;;;;;10.15;9.10;;;;;;;29.66;43.86;99211.30;255157;1104;114979;-72
2021/07/13 16:15:54;;;;;;;11.25;9.63;;;;;;;29.63;44.24;99212.07;254390;1103;115081;-70
2021/07/13 16:20:59;;;;;;;9.83;8.93;;;;;;;29.47;44.09;99214.21;254232;1103;115110;-70
2021/07/13 16:26:04;;;;;;;9.70;8.90;;;;;;;29.45;44.40;99202.81;254769;1104;116075;-68
2021/07/13 16:31:13;;;;;;;10.03;9.15;;;;;;;29.45;45.30;99197.31;254880;1100;115342;-71
2021/07/13 16:36:19;;;;;;;10.00;9.00;;;;;;;29.43;45.53;99188.66;254530;1097;116336;-69
2021/07/13 16:41:25;;;;;;;9.98;9.10;;;;;;;29.39;45.82;99194.08;254147;1097;115344;-70
2021/07/13 16:46:30;;;;;;;8.90;8.00;;;;;;;29.37;45.87;99196.40;254710;1103;115092;-69
2021/07/13 16:51:36;;;;;;;9.17;8.40;;;;;;;29.36;45.48;99188.53;254282;1103;115635;-70
2021/07/13 16:56:40;;;;;;;9.90;8.67;;;;;;;29.31;45.56;99188.89;255186;1104;115182;-70
2021/07/13 17:01:44;;;;;;;10.47;9.47;;;;;;;29.26;45.97;99186.47;254086;1104;114491;-70
2021/07/13 17:06:49;;;;;;;10.65;9.58;;;;;;;29.19;46.17;99197.34;254883;1098;115156;-69
2021/07/13 17:11:54;;;;;;;10.85;9.85;;;;;;;29.07;46.11;99193.66;255580;1104;115599;-70
2021/07/13 17:16:58;;;;;;;11.00;10.00;;;;;;;28.97;46.85;99193.52;254698;1104;115789;-70
2021/07/13 17:22:07;;;;;;;9.40;8.43;;;;;;;28.86;46.69;99185.13;257196;1103;116621;-68
2021/07/13 17:27:12;;;;;;;10.73;9.73;;;;;;;28.77;47.38;99195.54;257272;1103;115089;-69
2021/07/13 17:32:18;;;;;;;10.47;9.67;;;;;;;28.67;48.65;99193.45;256376;1103;115699;-70
2021/07/13 17:37:23;;;;;;;12.23;11.23;;;;;;;28.56;49.27;99195.22;254615;1103;116286;-70
2021/07/13 17:42:28;;;;;;;12.40;11.20;;;;;;;28.41;49.94;99192.27;255922;1099;116839;-69
2021/07/13 17:47:35;;;;;;;10.83;9.77;;;;;;;28.26;50.55;99197.86;256259;1104;115662;-69
2021/07/13 17:52:40;;;;;;;11.33;10.03;;;;;;;28.07;51.17;99196.73;256545;1103;114812;-70
2021/07/13 17:57:43;;;;;;;15.55;9.15;;;;;;;27.89;51.39;99208.51;257443;1103;115179;-70
2021/07/13 18:02:50;;;;;;;13.25;10.10;;;;;;;27.69;52.24;99219.49;257312;1104;115028;-70
2021/07/13 18:07:56;;;;;;;10.87;9.97;;;;;;;27.50;52.58;99206.58;257221;1103;116549;-70
2021/07/13 18:13:04;;;;;;;11.47;10.57;;;;;;;27.35;53.58;99217.58;257054;1104;115164;-70
2021/07/13 18:18:09;;;;;;;11.80;10.67;;;;;;;27.16;54.02;99221.89;256693;1104;116112;-70
2021/07/13 18:23:13;;;;;;;11.57;10.57;;;;;;;27.01;54.45;99221.91;255434;1100;115947;-70
2021/07/13 18:28:17;;;;;;;10.95;10.13;;;;;;;26.86;55.37;99222.72;255669;1104;115893;-70
2021/07/13 18:33:23;;;;;;;12.80;11.73;;;;;;;26.71;56.07;99227.05;255459;1104;115488;-70
2021/07/13 18:38:28;;;;;;;13.30;11.28;;;;;;;26.55;56.85;99232.53;255219;1104;114844;-70
2021/07/13 18:43:33;;;;;;;12.10;11.00;;;;;;;26.37;56.97;99232.08;255407;1103;115498;-69
2021/07/13 18:48:37;;;;;;;11.70;10.80;;;;;;;26.17;57.42;99227.63;255152;1097;114905;-70
2021/07/13 18:53:41;;;;;;;13.20;11.90;;;;;;;26.00;57.90;99230.66;254280;1103;114798;-70
2021/07/13 18:58:48;;;;;;;12.93;11.90;;;;;;;25.83;58.55;99239.97;254494;1104;115871;-70
2021/07/13 19:03:52;;;;;;;14.05;12.60;;;;;;;25.60;58.81;99245.16;254941;1104;116085;-69
2021/07/13 19:08:56;;;;;;;14.43;12.15;;;;;;;25.44;59.25;99234.16;254670;1104;117187;-69
2021/07/13 19:14:00;;;;;;;13.37;12.27;;;;;;;25.25;59.39;99253.09;254741;1103;116516;-70
2021/07/13 19:19:05;;;;;;;13.23;12.13;;;;;;;25.05;59.83;99249.38;254586;1103;116018;-70
2021/07/13 19:24:09;;;;;;;13.98;12.45;;;;;;;24.89;60.33;99247.63;254257;1104;117509;-69
2021/07/13 19:29:14;;;;;;;12.38;11.33;;;;;;;24.77;60.29;99251.14;254324;1104;116118;-68
2021/07/13 19:39:41;;;;;;;11.33;10.37;;;;;;;24.43;60.92;99242.28;255963;1103;103107;-70
2021/07/13 19:44:46;;;;;;;13.77;11.40;;;;;;;24.31;61.65;99244.18;255530;1103;115738;-69
2021/07/13 19:49:54;;;;;;;14.60;12.80;;;;;;;24.18;61.61;99246.84;257125;1104;115433;-70
2021/07/13 19:54:59;;;;;;;18.97;13.83;;;;;;;24.04;62.20;99242.84;256210;1104;115117;-70
2021/07/13 20:00:08;;;;;;;15.83;11.73;;;;;;;23.87;62.31;99234.83;257222;1103;115436;-70
2021/07/13 20:05:14;;;;;;;14.04;12.84;;;;;;;23.78;62.55;99235.72;255938;1102;115257;-69
2021/07/13 20:10:20;;;;;;;13.03;11.80;;;;;;;23.71;62.93;99235.45;257202;1102;116326;-70
2021/07/13 20:15:25;;;;;;;16.13;13.80;;;;;;;23.65;63.25;99225.91;257442;1103;115238;-70
2021/07/13 20:20:31;;;;;;;18.03;14.07;;;;;;;23.60;63.58;99225.30;256772;1101;118249;-69
2021/07/13 20:25:36;;;;;;;15.47;13.93;;;;;;;23.53;63.88;99228.58;255773;1102;115699;-69
2021/07/13 20:30:41;;;;;;;;;;;;;;;23.32;64.17;99239.41;255922;1103;115407;-69
2021/07/13 20:35:47;;;;;;;14.75;12.50;;;;;;;23.25;64.36;99233.70;257341;1102;102998;-69
2021/07/13 20:40:52;;;;;;;13.77;12.33;;;;;;;23.24;64.63;99228.59;255319;1104;116240;-69
2021/07/13 20:45:58;;;;;;;14.35;13.05;;;;;;;23.20;64.63;99220.33;255828;1102;116612;-69
2021/07/13 20:51:04;;;;;;;14.88;13.35;;;;;;;23.14;64.78;99227.08;254284;1103;116449;-69
2021/07/13 20:56:11;;;;;;;16.30;14.55;;;;;;;23.04;65.08;99222.81;255013;1097;115839;-69
2021/07/13 21:01:17;;;;;;;15.03;13.53;;;;;;;22.99;65.13;99230.35;254133;1097;116055;-69
2021/07/13 21:06:22;;;;;;;13.88;12.63;;;;;;;22.91;65.77;99232.02;255118;1103;117535;-70
2021/07/13 21:11:28;;;;;;;13.80;12.53;;;;;;;22.87;65.79;99227.56;255322;1102;115798;-69
2021/07/13 21:16:34;;;;;;;24.77;13.20;;;;;;;22.77;65.86;99234.92;254393;1101;115197;-69
2021/07/13 21:21:39;;;;;;;;;;;;;;;22.68;66.11;99233.36;254614;1101;114776;-69
2021/07/13 21:26:45;;;;;;;16.83;15.30;;;;;;;22.64;66.30;99241.37;255407;1101;103505;-69
2021/07/13 21:31:50;;;;;;;19.13;13.93;;;;;;;22.63;66.43;99239.77;254589;1102;115211;-69
2021/07/13 21:36:58;;;;;;;16.95;15.25;;;;;;;22.62;66.60;99254.51;254680;1103;115655;-69
2021/07/13 21:42:04;;;;;;;16.20;14.30;;;;;;;22.57;66.72;99256.60;255471;1104;116715;-69
2021/07/13 21:47:09;;;;;;;14.48;13.30;;;;;;;22.49;66.67;99272.59;254984;1101;115442;-68
2021/07/13 21:52:15;;;;;;;15.77;14.37;;;;;;;22.39;66.86;99277.57;255516;1101;116705;-70
2021/07/13 21:57:21;;;;;;;13.07;11.77;;;;;;;22.35;66.91;99263.05;255362;1104;117523;-70
2021/07/13 22:02:27;;;;;;;15.70;14.25;;;;;;;22.28;67.00;99273.63;255166;1103;118743;-69
2021/07/13 22:07:32;;;;;;;18.78;16.85;;;;;;;22.18;67.33;99263.89;255438;1101;115609;-69
2021/07/13 22:12:37;;;;;;;18.03;15.77;;;;;;;22.14;67.61;99257.52;257336;1101;115414;-70
2021/07/13 22:17:43;;;;;;;14.55;13.13;;;;;;;22.12;67.68;99254.32;256975;1101;115767;-69
2021/07/13 22:22:50;;;;;;;14.50;13.20;;;;;;;22.14;67.88;99257.52;257262;1101;116113;-70
2021/07/13 22:27:59;;;;;;;15.23;13.17;;;;;;;22.10;67.58;99253.84;257322;1102;114619;-69
2021/07/13 22:33:03;;;;;;;16.63;14.80;;;;;;;22.12;67.67;99251.61;257146;1104;114682;-70
2021/07/13 22:38:10;;;;;;;16.00;14.58;;;;;;;21.98;67.71;99227.36;256209;1103;115667;-69
2021/07/13 22:43:16;;;;;;;22.20;16.10;;;;;;;21.93;67.94;99216.66;254906;1101;115500;-69
2021/07/13 22:48:22;;;;;;;19.15;17.15;;;;;;;21.93;68.35;99211.23;254230;1097;115944;-69
2021/07/13 22:53:28;;;;;;;20.05;18.28;;;;;;;21.90;68.25;99202.94;255347;1103;115158;-69
2021/07/13 22:58:32;;;;;;;;;;;;;;;21.91;69.00;99218.10;254329;1103;115409;-69
2021/07/13 23:03:37;;;;;;;21.17;17.00;;;;;;;21.92;68.88;99222.41;256385;1104;103019;-68
2021/07/13 23:08:43;;;;;;;21.53;17.43;;;;;;;21.97;69.06;99216.82;254268;1104;115278;-69
2021/07/13 23:13:48;;;;;;;18.15;15.85;;;;;;;21.95;68.78;99210.91;255481;1103;115533;-69
2021/07/13 23:18:58;;;;;;;18.00;16.38;;;;;;;21.80;68.79;99195.92;254938;1103;115537;-69
2021/07/13 23:24:04;;;;;;;24.43;20.25;;;;;;;21.72;69.19;99204.86;254395;1097;115488;-69
2021/07/13 23:29:09;;;;;;;18.90;17.20;;;;;;;21.73;69.45;99206.45;254650;1104;115255;-69
2021/07/13 23:34:13;;;;;;;18.58;16.78;;;;;;;21.72;69.70;99200.23;255669;1104;115020;-70
2021/07/13 23:39:17;;;;;;;19.58;17.63;;;;;;;21.71;69.68;99198.64;255358;1102;115835;-69
2021/07/13 23:44:22;;;;;;;21.15;18.98;;;;;;;21.77;69.92;99216.35;254586;1104;114988;-69
2021/07/13 23:49:27;;;;;;;22.03;19.80;;;;;;;21.82;70.15;99216.19;255686;1104;115357;-69
2021/07/13 23:54:33;;;;;;;20.93;18.75;;;;;;;21.83;70.14;99212.36;255180;1104;115467;-69
2021/07/13 23:59:38;;;;;;;19.77;17.20;;;;;;;21.85;70.17;99218.27;255844;1103;114802;-69
